sensor_id;sensor_type;location;lat;lon;timestamp;temperature;humidity
50570;DHT22;36525;49.398;7.614;2023-05-07T00:00:09;13.70;99.90
50570;DHT22;36525;49.398;7.614;2023-05-07T00:02:38;13.70;99.90
50570;DHT22;36525;49.398;7.614;2023-05-07T00:05:06;13.70;99.90
50570;DHT22;36525;49.398;7.614;2023-05-07T00:07:35;13.60;99.90
50570;DHT22;36525;49.398;7.614;2023-05-07T00:10:04;13.60;99.90
50570;DHT22;36525;49.398;7.614;2023-05-07T00:12:33;13.50;99.90
50570;DHT22;36525;49.398;7.614;2023-05-07T00:15:03;13.60;99.90
50570;DHT22;36525;49.398;7.614;2023-05-07T00:17:33;13.50;99.90
50570;DHT22;36525;49.398;7.614;2023-05-07T00:20:00;13.50;99.90
50570;DHT22;36525;49.398;7.614;2023-05-07T00:22:28;13.40;99.90
50570;DHT22;36525;49.398;7.614;2023-05-07T00:24:56;13.40;99.90
50570;DHT22;36525;49.398;7.614;2023-05-07T00:27:24;13.30;99.90
50570;DHT22;36525;49.398;7.614;2023-05-07T00:29:51;13.30;99.90
50570;DHT22;36525;49.398;7.614;2023-05-07T00:32:19;13.30;99.90
50570;DHT22;36525;49.398;7.614;2023-05-07T00:34:46;13.30;99.90
50570;DHT22;36525;49.398;7.614;2023-05-07T00:37:14;13.30;99.90
50570;DHT22;36525;49.398;7.614;2023-05-07T00:39:42;13.30;99.90
50570;DHT22;36525;49.398;7.614;2023-05-07T00:42:09;13.30;99.90
50570;DHT22;36525;49.398;7.614;2023-05-07T00:44:36;13.30;99.90
50570;DHT22;36525;49.398;7.614;2023-05-07T00:47:04;13.20;99.90
50570;DHT22;36525;49.398;7.614;2023-05-07T00:49:42;13.30;99.90
50570;DHT22;36525;49.398;7.614;2023-05-07T00:52:15;13.30;99.90
50570;DHT22;36525;49.398;7.614;2023-05-07T00:54:43;13.30;99.90
50570;DHT22;36525;49.398;7.614;2023-05-07T00:57:11;13.20;99.90
50570;DHT22;36525;49.398;7.614;2023-05-07T00:59:38;13.10;99.90
50570;DHT22;36525;49.398;7.614;2023-05-07T01:02:06;13.10;99.90
50570;DHT22;36525;49.398;7.614;2023-05-07T01:04:37;13.10;99.90
50570;DHT22;36525;49.398;7.614;2023-05-07T01:07:07;13.10;99.90
50570;DHT22;36525;49.398;7.614;2023-05-07T01:09:35;13.10;99.90
50570;DHT22;36525;49.398;7.614;2023-05-07T01:12:03;13.10;99.90
50570;DHT22;36525;49.398;7.614;2023-05-07T01:14:31;13.10;99.90
50570;DHT22;36525;49.398;7.614;2023-05-07T01:17:00;13.10;99.90
50570;DHT22;36525;49.398;7.614;2023-05-07T01:19:28;13.00;99.90
50570;DHT22;36525;49.398;7.614;2023-05-07T01:22:02;13.00;99.90
50570;DHT22;36525;49.398;7.614;2023-05-07T01:24:31;13.00;99.90
50570;DHT22;36525;49.398;7.614;2023-05-07T01:27:02;12.90;99.90
50570;DHT22;36525;49.398;7.614;2023-05-07T01:29:29;12.90;99.90
50570;DHT22;36525;49.398;7.614;2023-05-07T01:31:59;12.90;99.90
50570;DHT22;36525;49.398;7.614;2023-05-07T01:34:28;12.80;99.90
50570;DHT22;36525;49.398;7.614;2023-05-07T01:36:59;12.80;99.90
50570;DHT22;36525;49.398;7.614;2023-05-07T01:39:28;12.70;99.90
50570;DHT22;36525;49.398;7.614;2023-05-07T01:41:56;12.70;99.90
50570;DHT22;36525;49.398;7.614;2023-05-07T01:44:26;12.70;99.90
50570;DHT22;36525;49.398;7.614;2023-05-07T01:46:54;12.60;99.90
50570;DHT22;36525;49.398;7.614;2023-05-07T01:49:22;12.60;99.90
50570;DHT22;36525;49.398;7.614;2023-05-07T01:51:49;12.50;99.90
50570;DHT22;36525;49.398;7.614;2023-05-07T01:54:17;12.50;99.90
50570;DHT22;36525;49.398;7.614;2023-05-07T01:56:44;12.40;99.90
50570;DHT22;36525;49.398;7.614;2023-05-07T01:59:11;12.40;99.90
50570;DHT22;36525;49.398;7.614;2023-05-07T02:01:40;12.40;99.90
50570;DHT22;36525;49.398;7.614;2023-05-07T02:04:07;12.40;99.90
50570;DHT22;36525;49.398;7.614;2023-05-07T02:06:35;12.40;99.90
50570;DHT22;36525;49.398;7.614;2023-05-07T02:09:02;12.30;99.90
50570;DHT22;36525;49.398;7.614;2023-05-07T02:11:29;12.30;99.90
50570;DHT22;36525;49.398;7.614;2023-05-07T02:13:56;12.30;99.90
50570;DHT22;36525;49.398;7.614;2023-05-07T02:16:24;12.30;99.90
50570;DHT22;36525;49.398;7.614;2023-05-07T02:18:51;12.30;99.90
50570;DHT22;36525;49.398;7.614;2023-05-07T02:21:18;12.30;99.90
50570;DHT22;36525;49.398;7.614;2023-05-07T02:23:46;12.30;99.90
50570;DHT22;36525;49.398;7.614;2023-05-07T02:26:13;12.20;99.90
50570;DHT22;36525;49.398;7.614;2023-05-07T02:28:43;12.20;99.90
50570;DHT22;36525;49.398;7.614;2023-05-07T02:31:10;12.20;99.90
50570;DHT22;36525;49.398;7.614;2023-05-07T02:33:36;12.20;99.90
50570;DHT22;36525;49.398;7.614;2023-05-07T02:36:11;12.20;99.90
50570;DHT22;36525;49.398;7.614;2023-05-07T02:38:38;12.20;99.90
50570;DHT22;36525;49.398;7.614;2023-05-07T02:41:05;12.20;99.90
50570;DHT22;36525;49.398;7.614;2023-05-07T02:43:33;12.10;99.90
50570;DHT22;36525;49.398;7.614;2023-05-07T02:46:04;12.10;99.90
50570;DHT22;36525;49.398;7.614;2023-05-07T02:48:34;12.00;99.90
50570;DHT22;36525;49.398;7.614;2023-05-07T02:51:02;12.00;99.90
50570;DHT22;36525;49.398;7.614;2023-05-07T02:53:30;12.00;99.90
50570;DHT22;36525;49.398;7.614;2023-05-07T02:55:58;12.00;99.90
50570;DHT22;36525;49.398;7.614;2023-05-07T02:58:27;12.00;99.90
50570;DHT22;36525;49.398;7.614;2023-05-07T03:00:54;12.00;99.90
50570;DHT22;36525;49.398;7.614;2023-05-07T03:03:22;12.00;99.90
50570;DHT22;36525;49.398;7.614;2023-05-07T03:05:49;12.00;99.90
50570;DHT22;36525;49.398;7.614;2023-05-07T03:08:16;12.10;99.90
50570;DHT22;36525;49.398;7.614;2023-05-07T03:10:43;12.10;99.90
50570;DHT22;36525;49.398;7.614;2023-05-07T03:13:10;12.10;99.90
50570;DHT22;36525;49.398;7.614;2023-05-07T03:15:38;12.00;99.90
50570;DHT22;36525;49.398;7.614;2023-05-07T03:18:05;12.10;99.90
50570;DHT22;36525;49.398;7.614;2023-05-07T03:20:34;12.10;99.90
50570;DHT22;36525;49.398;7.614;2023-05-07T03:23:01;11.90;99.90
50570;DHT22;36525;49.398;7.614;2023-05-07T03:25:28;12.00;99.90
50570;DHT22;36525;49.398;7.614;2023-05-07T03:28:15;11.90;99.90
50570;DHT22;36525;49.398;7.614;2023-05-07T03:30:42;12.00;99.90
50570;DHT22;36525;49.398;7.614;2023-05-07T03:33:09;11.90;99.90
50570;DHT22;36525;49.398;7.614;2023-05-07T03:35:36;12.00;99.90
50570;DHT22;36525;49.398;7.614;2023-05-07T03:38:03;12.00;99.90
50570;DHT22;36525;49.398;7.614;2023-05-07T03:40:31;12.00;99.90
50570;DHT22;36525;49.398;7.614;2023-05-07T03:43:00;11.90;99.90
50570;DHT22;36525;49.398;7.614;2023-05-07T03:45:27;11.90;99.90
50570;DHT22;36525;49.398;7.614;2023-05-07T03:47:54;11.80;99.90
50570;DHT22;36525;49.398;7.614;2023-05-07T03:50:21;11.70;99.90
50570;DHT22;36525;49.398;7.614;2023-05-07T03:52:49;11.70;99.90
50570;DHT22;36525;49.398;7.614;2023-05-07T03:55:16;11.70;99.90
50570;DHT22;36525;49.398;7.614;2023-05-07T03:57:43;11.70;99.90
50570;DHT22;36525;49.398;7.614;2023-05-07T04:00:11;11.70;99.90
50570;DHT22;36525;49.398;7.614;2023-05-07T04:02:39;11.80;99.90
50570;DHT22;36525;49.398;7.614;2023-05-07T04:05:06;11.80;99.90
50570;DHT22;36525;49.398;7.614;2023-05-07T04:07:36;11.70;99.90
50570;DHT22;36525;49.398;7.614;2023-05-07T04:10:04;11.80;99.90
50570;DHT22;36525;49.398;7.614;2023-05-07T04:12:32;11.80;99.90
50570;DHT22;36525;49.398;7.614;2023-05-07T04:14:59;11.70;99.90
50570;DHT22;36525;49.398;7.614;2023-05-07T04:17:26;11.60;99.90
50570;DHT22;36525;49.398;7.614;2023-05-07T04:19:53;11.60;99.90
50570;DHT22;36525;49.398;7.614;2023-05-07T04:22:20;11.60;99.90
50570;DHT22;36525;49.398;7.614;2023-05-07T04:24:47;11.60;99.90
50570;DHT22;36525;49.398;7.614;2023-05-07T04:27:14;11.60;99.90
50570;DHT22;36525;49.398;7.614;2023-05-07T04:29:41;11.70;99.90
50570;DHT22;36525;49.398;7.614;2023-05-07T04:32:09;11.70;99.90
50570;DHT22;36525;49.398;7.614;2023-05-07T04:34:37;11.70;99.90
50570;DHT22;36525;49.398;7.614;2023-05-07T04:37:04;11.60;99.90
50570;DHT22;36525;49.398;7.614;2023-05-07T04:39:32;11.70;99.90
50570;DHT22;36525;49.398;7.614;2023-05-07T04:42:02;11.70;99.90
50570;DHT22;36525;49.398;7.614;2023-05-07T04:44:29;11.70;99.90
50570;DHT22;36525;49.398;7.614;2023-05-07T04:46:58;11.80;99.90
50570;DHT22;36525;49.398;7.614;2023-05-07T04:49:25;11.80;99.90
50570;DHT22;36525;49.398;7.614;2023-05-07T04:51:52;11.90;99.90
50570;DHT22;36525;49.398;7.614;2023-05-07T04:54:19;11.90;99.90
50570;DHT22;36525;49.398;7.614;2023-05-07T04:56:46;12.10;99.90
50570;DHT22;36525;49.398;7.614;2023-05-07T04:59:13;12.10;99.90
50570;DHT22;36525;49.398;7.614;2023-05-07T05:01:40;12.20;99.90
50570;DHT22;36525;49.398;7.614;2023-05-07T05:04:08;12.40;99.90
50570;DHT22;36525;49.398;7.614;2023-05-07T05:06:35;12.40;99.90
50570;DHT22;36525;49.398;7.614;2023-05-07T05:09:02;12.50;99.90
50570;DHT22;36525;49.398;7.614;2023-05-07T05:11:31;12.60;99.90
50570;DHT22;36525;49.398;7.614;2023-05-07T05:13:59;12.70;99.90
50570;DHT22;36525;49.398;7.614;2023-05-07T05:16:27;12.80;99.90
50570;DHT22;36525;49.398;7.614;2023-05-07T05:18:54;12.90;99.90
50570;DHT22;36525;49.398;7.614;2023-05-07T05:21:22;13.00;99.90
50570;DHT22;36525;49.398;7.614;2023-05-07T05:23:49;13.00;99.90
50570;DHT22;36525;49.398;7.614;2023-05-07T05:26:16;13.00;99.90
50570;DHT22;36525;49.398;7.614;2023-05-07T05:28:43;13.10;99.90
50570;DHT22;36525;49.398;7.614;2023-05-07T05:31:11;13.20;99.90
50570;DHT22;36525;49.398;7.614;2023-05-07T05:33:39;13.30;99.90
50570;DHT22;36525;49.398;7.614;2023-05-07T05:36:07;13.50;99.90
50570;DHT22;36525;49.398;7.614;2023-05-07T05:38:36;13.50;99.90
50570;DHT22;36525;49.398;7.614;2023-05-07T05:41:03;13.60;99.90
50570;DHT22;36525;49.398;7.614;2023-05-07T05:43:30;13.60;99.90
50570;DHT22;36525;49.398;7.614;2023-05-07T05:45:58;13.70;99.90
50570;DHT22;36525;49.398;7.614;2023-05-07T05:50:53;13.80;99.90
50570;DHT22;36525;49.398;7.614;2023-05-07T05:53:20;14.00;99.90
50570;DHT22;36525;49.398;7.614;2023-05-07T05:55:47;14.10;99.90
50570;DHT22;36525;49.398;7.614;2023-05-07T05:58:18;14.10;99.90
50570;DHT22;36525;49.398;7.614;2023-05-07T06:00:46;14.20;99.90
50570;DHT22;36525;49.398;7.614;2023-05-07T06:03:14;14.40;99.90
50570;DHT22;36525;49.398;7.614;2023-05-07T06:05:42;14.50;99.90
50570;DHT22;36525;49.398;7.614;2023-05-07T06:08:09;14.60;99.90
50570;DHT22;36525;49.398;7.614;2023-05-07T06:10:37;14.60;99.90
50570;DHT22;36525;49.398;7.614;2023-05-07T06:13:04;14.80;99.90
50570;DHT22;36525;49.398;7.614;2023-05-07T06:15:32;14.90;99.90
50570;DHT22;36525;49.398;7.614;2023-05-07T06:18:02;15.00;99.90
50570;DHT22;36525;49.398;7.614;2023-05-07T06:20:29;15.00;99.90
50570;DHT22;36525;49.398;7.614;2023-05-07T06:25:24;15.20;99.90
50570;DHT22;36525;49.398;7.614;2023-05-07T06:27:51;15.30;99.90
50570;DHT22;36525;49.398;7.614;2023-05-07T06:30:18;15.40;99.90
50570;DHT22;36525;49.398;7.614;2023-05-07T06:32:45;15.40;99.90
50570;DHT22;36525;49.398;7.614;2023-05-07T06:35:12;15.40;99.90
50570;DHT22;36525;49.398;7.614;2023-05-07T06:37:41;15.60;99.90
50570;DHT22;36525;49.398;7.614;2023-05-07T06:40:11;15.80;99.90
50570;DHT22;36525;49.398;7.614;2023-05-07T06:42:39;15.90;99.90
50570;DHT22;36525;49.398;7.614;2023-05-07T06:45:07;16.10;99.90
50570;DHT22;36525;49.398;7.614;2023-05-07T06:47:36;16.20;99.90
50570;DHT22;36525;49.398;7.614;2023-05-07T06:50:03;16.40;99.90
50570;DHT22;36525;49.398;7.614;2023-05-07T06:52:31;16.60;99.90
50570;DHT22;36525;49.398;7.614;2023-05-07T06:54:59;16.80;99.90
50570;DHT22;36525;49.398;7.614;2023-05-07T06:57:26;16.90;99.90
50570;DHT22;36525;49.398;7.614;2023-05-07T06:59:53;17.00;99.90
50570;DHT22;36525;49.398;7.614;2023-05-07T07:02:21;17.00;99.90
50570;DHT22;36525;49.398;7.614;2023-05-07T07:04:48;17.00;99.90
50570;DHT22;36525;49.398;7.614;2023-05-07T07:07:15;16.80;99.90
50570;DHT22;36525;49.398;7.614;2023-05-07T07:09:42;16.80;99.90
50570;DHT22;36525;49.398;7.614;2023-05-07T07:12:09;17.00;99.90
50570;DHT22;36525;49.398;7.614;2023-05-07T07:14:37;17.10;99.90
50570;DHT22;36525;49.398;7.614;2023-05-07T07:17:04;17.20;99.90
50570;DHT22;36525;49.398;7.614;2023-05-07T07:19:32;17.20;99.90
50570;DHT22;36525;49.398;7.614;2023-05-07T07:21:59;17.40;99.90
50570;DHT22;36525;49.398;7.614;2023-05-07T07:24:26;17.40;99.90
50570;DHT22;36525;49.398;7.614;2023-05-07T07:26:53;17.50;99.90
50570;DHT22;36525;49.398;7.614;2023-05-07T07:29:21;17.50;99.90
50570;DHT22;36525;49.398;7.614;2023-05-07T07:31:49;17.40;99.90
50570;DHT22;36525;49.398;7.614;2023-05-07T07:34:16;17.50;99.90
50570;DHT22;36525;49.398;7.614;2023-05-07T07:36:44;17.40;99.90
50570;DHT22;36525;49.398;7.614;2023-05-07T07:39:12;17.60;99.90
50570;DHT22;36525;49.398;7.614;2023-05-07T07:41:40;17.50;99.90
50570;DHT22;36525;49.398;7.614;2023-05-07T07:44:07;17.40;99.90
50570;DHT22;36525;49.398;7.614;2023-05-07T07:46:35;17.40;99.90
50570;DHT22;36525;49.398;7.614;2023-05-07T07:49:02;17.50;99.90
50570;DHT22;36525;49.398;7.614;2023-05-07T07:51:29;17.50;99.90
50570;DHT22;36525;49.398;7.614;2023-05-07T07:53:57;17.70;99.90
50570;DHT22;36525;49.398;7.614;2023-05-07T07:56:24;17.80;99.90
50570;DHT22;36525;49.398;7.614;2023-05-07T07:58:52;17.90;99.90
50570;DHT22;36525;49.398;7.614;2023-05-07T08:01:19;17.90;99.90
50570;DHT22;36525;49.398;7.614;2023-05-07T08:03:46;17.90;99.90
50570;DHT22;36525;49.398;7.614;2023-05-07T08:06:14;18.00;99.90
50570;DHT22;36525;49.398;7.614;2023-05-07T08:08:41;18.20;99.90
50570;DHT22;36525;49.398;7.614;2023-05-07T08:11:09;18.20;99.90
50570;DHT22;36525;49.398;7.614;2023-05-07T08:13:36;18.20;99.90
50570;DHT22;36525;49.398;7.614;2023-05-07T08:16:04;18.30;99.90
50570;DHT22;36525;49.398;7.614;2023-05-07T08:18:32;18.40;99.90
50570;DHT22;36525;49.398;7.614;2023-05-07T08:20:59;18.60;99.90
50570;DHT22;36525;49.398;7.614;2023-05-07T08:23:27;18.70;99.90
50570;DHT22;36525;49.398;7.614;2023-05-07T08:25:54;18.70;99.90
50570;DHT22;36525;49.398;7.614;2023-05-07T08:28:21;18.70;99.90
50570;DHT22;36525;49.398;7.614;2023-05-07T08:30:51;18.80;99.90
50570;DHT22;36525;49.398;7.614;2023-05-07T08:33:18;18.70;99.90
50570;DHT22;36525;49.398;7.614;2023-05-07T08:35:47;18.80;99.90
50570;DHT22;36525;49.398;7.614;2023-05-07T08:38:15;19.00;99.90
50570;DHT22;36525;49.398;7.614;2023-05-07T08:40:42;19.30;99.90
50570;DHT22;36525;49.398;7.614;2023-05-07T08:43:12;19.30;99.90
50570;DHT22;36525;49.398;7.614;2023-05-07T08:45:41;19.50;99.90
50570;DHT22;36525;49.398;7.614;2023-05-07T08:48:13;19.90;99.90
50570;DHT22;36525;49.398;7.614;2023-05-07T08:50:42;20.40;99.90
50570;DHT22;36525;49.398;7.614;2023-05-07T08:53:09;20.80;99.90
50570;DHT22;36525;49.398;7.614;2023-05-07T08:55:36;20.90;99.90
50570;DHT22;36525;49.398;7.614;2023-05-07T08:58:06;21.10;99.90
50570;DHT22;36525;49.398;7.614;2023-05-07T09:00:36;21.10;99.90
50570;DHT22;36525;49.398;7.614;2023-05-07T09:03:03;21.20;99.90
50570;DHT22;36525;49.398;7.614;2023-05-07T09:05:32;21.40;99.90
50570;DHT22;36525;49.398;7.614;2023-05-07T09:07:59;22.20;99.90
50570;DHT22;36525;49.398;7.614;2023-05-07T09:10:29;23.10;99.90
50570;DHT22;36525;49.398;7.614;2023-05-07T09:12:56;23.90;99.90
50570;DHT22;36525;49.398;7.614;2023-05-07T09:15:23;24.00;99.90
50570;DHT22;36525;49.398;7.614;2023-05-07T09:17:51;23.70;99.90
50570;DHT22;36525;49.398;7.614;2023-05-07T09:20:19;23.30;99.90
50570;DHT22;36525;49.398;7.614;2023-05-07T09:22:46;22.90;99.90
50570;DHT22;36525;49.398;7.614;2023-05-07T09:25:13;22.60;99.90
50570;DHT22;36525;49.398;7.614;2023-05-07T09:27:41;22.90;99.90
50570;DHT22;36525;49.398;7.614;2023-05-07T09:30:09;23.10;99.90
50570;DHT22;36525;49.398;7.614;2023-05-07T09:32:37;22.50;99.90
50570;DHT22;36525;49.398;7.614;2023-05-07T09:35:05;22.40;99.90
50570;DHT22;36525;49.398;7.614;2023-05-07T09:37:35;22.50;99.90
50570;DHT22;36525;49.398;7.614;2023-05-07T09:40:03;22.50;99.90
50570;DHT22;36525;49.398;7.614;2023-05-07T09:42:30;22.30;99.90
50570;DHT22;36525;49.398;7.614;2023-05-07T09:44:59;22.40;99.90
50570;DHT22;36525;49.398;7.614;2023-05-07T09:47:31;22.30;99.90
50570;DHT22;36525;49.398;7.614;2023-05-07T09:49:59;22.40;99.90
50570;DHT22;36525;49.398;7.614;2023-05-07T09:52:30;22.90;99.90
50570;DHT22;36525;49.398;7.614;2023-05-07T09:55:00;23.20;99.90
50570;DHT22;36525;49.398;7.614;2023-05-07T09:57:30;23.70;99.90
50570;DHT22;36525;49.398;7.614;2023-05-07T09:59:59;24.40;99.90
50570;DHT22;36525;49.398;7.614;2023-05-07T10:02:31;25.10;99.90
50570;DHT22;36525;49.398;7.614;2023-05-07T10:05:01;25.40;99.90
50570;DHT22;36525;49.398;7.614;2023-05-07T10:07:29;25.10;99.90
50570;DHT22;36525;49.398;7.614;2023-05-07T10:09:58;24.70;99.90
50570;DHT22;36525;49.398;7.614;2023-05-07T10:12:26;24.40;99.90
50570;DHT22;36525;49.398;7.614;2023-05-07T10:14:54;24.40;99.90
50570;DHT22;36525;49.398;7.614;2023-05-07T10:17:22;24.80;99.90
50570;DHT22;36525;49.398;7.614;2023-05-07T10:19:50;25.40;99.90
50570;DHT22;36525;49.398;7.614;2023-05-07T10:22:20;26.00;99.90
50570;DHT22;36525;49.398;7.614;2023-05-07T10:24:49;26.20;99.90
50570;DHT22;36525;49.398;7.614;2023-05-07T10:27:21;26.90;99.90
50570;DHT22;36525;49.398;7.614;2023-05-07T10:30:26;26.80;99.90
50570;DHT22;36525;49.398;7.614;2023-05-07T10:33:02;26.20;99.90
50570;DHT22;36525;49.398;7.614;2023-05-07T10:35:38;26.80;99.90
50570;DHT22;36525;49.398;7.614;2023-05-07T10:38:08;26.90;99.90
50570;DHT22;36525;49.398;7.614;2023-05-07T10:40:36;26.90;99.60
50570;DHT22;36525;49.398;7.614;2023-05-07T10:43:05;26.80;99.90
50570;DHT22;36525;49.398;7.614;2023-05-07T10:45:36;27.00;99.70
50570;DHT22;36525;49.398;7.614;2023-05-07T10:48:13;27.20;99.20
50570;DHT22;36525;49.398;7.614;2023-05-07T10:50:44;27.20;99.00
50570;DHT22;36525;49.398;7.614;2023-05-07T10:58:48;27.10;98.20
50570;DHT22;36525;49.398;7.614;2023-05-07T11:04:23;27.40;97.70
50570;DHT22;36525;49.398;7.614;2023-05-07T11:09:58;27.00;97.80
50570;DHT22;36525;49.398;7.614;2023-05-07T11:15:09;27.60;97.20
50570;DHT22;36525;49.398;7.614;2023-05-07T11:17:55;27.70;97.50
50570;DHT22;36525;49.398;7.614;2023-05-07T11:28:36;26.30;98.90
50570;DHT22;36525;49.398;7.614;2023-05-07T11:31:05;26.60;97.50
50570;DHT22;36525;49.398;7.614;2023-05-07T11:33:33;26.70;97.60
50570;DHT22;36525;49.398;7.614;2023-05-07T11:36:03;26.30;98.50
50570;DHT22;36525;49.398;7.614;2023-05-07T11:38:35;26.50;97.40
50570;DHT22;36525;49.398;7.614;2023-05-07T11:41:02;26.80;97.20
50570;DHT22;36525;49.398;7.614;2023-05-07T11:43:32;26.60;97.60
50570;DHT22;36525;49.398;7.614;2023-05-07T11:46:11;26.00;97.70
50570;DHT22;36525;49.398;7.614;2023-05-07T11:48:39;25.60;97.80
50570;DHT22;36525;49.398;7.614;2023-05-07T11:51:07;25.30;98.20
50570;DHT22;36525;49.398;7.614;2023-05-07T11:53:38;25.10;98.30
50570;DHT22;36525;49.398;7.614;2023-05-07T11:56:15;25.00;99.40
50570;DHT22;36525;49.398;7.614;2023-05-07T11:58:44;24.90;99.00
50570;DHT22;36525;49.398;7.614;2023-05-07T12:01:14;24.70;99.40
50570;DHT22;36525;49.398;7.614;2023-05-07T12:03:43;24.60;99.90
50570;DHT22;36525;49.398;7.614;2023-05-07T12:06:15;24.60;99.80
50570;DHT22;36525;49.398;7.614;2023-05-07T12:08:44;24.60;99.60
50570;DHT22;36525;49.398;7.614;2023-05-07T12:11:16;24.50;99.90
50570;DHT22;36525;49.398;7.614;2023-05-07T12:13:49;24.40;99.90
50570;DHT22;36525;49.398;7.614;2023-05-07T12:16:17;24.20;99.90
50570;DHT22;36525;49.398;7.614;2023-05-07T12:18:45;24.30;99.90
50570;DHT22;36525;49.398;7.614;2023-05-07T12:21:13;24.20;99.90
50570;DHT22;36525;49.398;7.614;2023-05-07T12:23:41;24.10;99.90
50570;DHT22;36525;49.398;7.614;2023-05-07T12:26:09;24.00;99.90
50570;DHT22;36525;49.398;7.614;2023-05-07T12:28:38;23.80;99.90
50570;DHT22;36525;49.398;7.614;2023-05-07T12:31:06;23.70;99.90
50570;DHT22;36525;49.398;7.614;2023-05-07T12:33:35;23.30;99.90
50570;DHT22;36525;49.398;7.614;2023-05-07T12:36:05;22.90;99.90
50570;DHT22;36525;49.398;7.614;2023-05-07T12:38:37;22.50;99.90
50570;DHT22;36525;49.398;7.614;2023-05-07T12:41:06;22.20;99.90
50570;DHT22;36525;49.398;7.614;2023-05-07T12:43:35;21.90;99.90
50570;DHT22;36525;49.398;7.614;2023-05-07T12:46:06;21.50;99.90
50570;DHT22;36525;49.398;7.614;2023-05-07T12:48:38;21.20;99.90
50570;DHT22;36525;49.398;7.614;2023-05-07T12:51:10;20.90;99.90
50570;DHT22;36525;49.398;7.614;2023-05-07T12:53:42;20.70;99.90
50570;DHT22;36525;49.398;7.614;2023-05-07T12:56:09;20.40;99.90
50570;DHT22;36525;49.398;7.614;2023-05-07T12:58:37;20.10;99.90
50570;DHT22;36525;49.398;7.614;2023-05-07T13:01:07;19.90;99.90
50570;DHT22;36525;49.398;7.614;2023-05-07T13:03:38;19.80;99.90
50570;DHT22;36525;49.398;7.614;2023-05-07T13:06:09;19.60;99.90
50570;DHT22;36525;49.398;7.614;2023-05-07T13:08:40;19.30;99.90
50570;DHT22;36525;49.398;7.614;2023-05-07T13:11:11;19.00;99.90
50570;DHT22;36525;49.398;7.614;2023-05-07T13:13:39;18.40;99.90
50570;DHT22;36525;49.398;7.614;2023-05-07T13:16:08;18.10;99.90
50570;DHT22;36525;49.398;7.614;2023-05-07T13:21:07;17.30;99.90
50570;DHT22;36525;49.398;7.614;2023-05-07T13:23:34;17.10;99.90
50570;DHT22;36525;49.398;7.614;2023-05-07T13:26:01;17.00;99.90
50570;DHT22;36525;49.398;7.614;2023-05-07T13:28:40;16.90;99.90
50570;DHT22;36525;49.398;7.614;2023-05-07T13:31:07;16.80;99.90
50570;DHT22;36525;49.398;7.614;2023-05-07T13:33:34;16.60;99.90
50570;DHT22;36525;49.398;7.614;2023-05-07T13:36:02;16.40;99.90
50570;DHT22;36525;49.398;7.614;2023-05-07T13:40:59;16.20;99.90
50570;DHT22;36525;49.398;7.614;2023-05-07T13:43:26;16.00;99.90
50570;DHT22;36525;49.398;7.614;2023-05-07T13:45:53;15.80;99.90
50570;DHT22;36525;49.398;7.614;2023-05-07T13:48:21;15.60;99.90
50570;DHT22;36525;49.398;7.614;2023-05-07T13:50:48;15.60;99.90
50570;DHT22;36525;49.398;7.614;2023-05-07T13:53:15;15.30;99.90
50570;DHT22;36525;49.398;7.614;2023-05-07T13:55:45;15.10;99.90
50570;DHT22;36525;49.398;7.614;2023-05-07T13:58:12;14.90;99.90
50570;DHT22;36525;49.398;7.614;2023-05-07T14:00:39;14.60;99.90
50570;DHT22;36525;49.398;7.614;2023-05-07T14:03:06;14.50;99.90
50570;DHT22;36525;49.398;7.614;2023-05-07T14:05:34;14.50;99.90
50570;DHT22;36525;49.398;7.614;2023-05-07T14:08:02;14.60;99.90
50570;DHT22;36525;49.398;7.614;2023-05-07T14:10:31;14.80;99.90
50570;DHT22;36525;49.398;7.614;2023-05-07T14:12:58;14.80;99.90
50570;DHT22;36525;49.398;7.614;2023-05-07T14:15:26;14.90;99.90
50570;DHT22;36525;49.398;7.614;2023-05-07T14:17:53;14.90;99.90
50570;DHT22;36525;49.398;7.614;2023-05-07T14:20:22;14.90;99.90
50570;DHT22;36525;49.398;7.614;2023-05-07T14:22:50;14.90;99.90
50570;DHT22;36525;49.398;7.614;2023-05-07T14:25:17;14.70;99.90
50570;DHT22;36525;49.398;7.614;2023-05-07T14:27:44;14.60;99.90
50570;DHT22;36525;49.398;7.614;2023-05-07T14:30:12;14.50;99.90
50570;DHT22;36525;49.398;7.614;2023-05-07T14:32:39;14.50;99.90
50570;DHT22;36525;49.398;7.614;2023-05-07T14:35:06;14.40;99.90
50570;DHT22;36525;49.398;7.614;2023-05-07T14:37:35;14.50;99.90
50570;DHT22;36525;49.398;7.614;2023-05-07T14:40:02;14.60;99.90
50570;DHT22;36525;49.398;7.614;2023-05-07T14:42:29;14.60;99.90
50570;DHT22;36525;49.398;7.614;2023-05-07T14:44:56;14.60;99.90
50570;DHT22;36525;49.398;7.614;2023-05-07T14:47:23;14.60;99.90
50570;DHT22;36525;49.398;7.614;2023-05-07T14:49:51;14.60;99.90
50570;DHT22;36525;49.398;7.614;2023-05-07T14:52:18;14.60;99.90
50570;DHT22;36525;49.398;7.614;2023-05-07T14:54:45;14.60;99.90
50570;DHT22;36525;49.398;7.614;2023-05-07T14:57:14;14.60;99.90
50570;DHT22;36525;49.398;7.614;2023-05-07T14:59:43;14.60;99.90
50570;DHT22;36525;49.398;7.614;2023-05-07T15:02:11;14.60;99.90
50570;DHT22;36525;49.398;7.614;2023-05-07T15:04:39;14.60;99.90
50570;DHT22;36525;49.398;7.614;2023-05-07T15:07:13;14.70;99.90
50570;DHT22;36525;49.398;7.614;2023-05-07T15:09:42;14.80;99.90
50570;DHT22;36525;49.398;7.614;2023-05-07T15:12:10;14.90;99.90
50570;DHT22;36525;49.398;7.614;2023-05-07T15:14:38;15.00;99.90
50570;DHT22;36525;49.398;7.614;2023-05-07T15:17:06;15.10;99.90
50570;DHT22;36525;49.398;7.614;2023-05-07T15:19:34;15.20;99.90
50570;DHT22;36525;49.398;7.614;2023-05-07T15:22:01;15.20;99.90
50570;DHT22;36525;49.398;7.614;2023-05-07T15:24:30;15.40;99.90
50570;DHT22;36525;49.398;7.614;2023-05-07T15:26:58;15.50;99.90
50570;DHT22;36525;49.398;7.614;2023-05-07T15:29:25;15.60;99.90
50570;DHT22;36525;49.398;7.614;2023-05-07T15:31:52;16.00;99.90
50570;DHT22;36525;49.398;7.614;2023-05-07T15:34:19;16.20;99.90
50570;DHT22;36525;49.398;7.614;2023-05-07T15:36:47;16.10;99.90
50570;DHT22;36525;49.398;7.614;2023-05-07T15:39:14;16.20;99.90
50570;DHT22;36525;49.398;7.614;2023-05-07T15:41:41;16.20;99.90
50570;DHT22;36525;49.398;7.614;2023-05-07T15:44:08;16.50;99.90
50570;DHT22;36525;49.398;7.614;2023-05-07T15:46:36;16.80;99.90
50570;DHT22;36525;49.398;7.614;2023-05-07T15:49:04;17.00;99.90
50570;DHT22;36525;49.398;7.614;2023-05-07T15:51:34;17.10;99.90
50570;DHT22;36525;49.398;7.614;2023-05-07T15:54:02;17.30;99.90
50570;DHT22;36525;49.398;7.614;2023-05-07T15:56:29;17.30;99.90
50570;DHT22;36525;49.398;7.614;2023-05-07T15:58:59;17.50;99.90
50570;DHT22;36525;49.398;7.614;2023-05-07T16:01:27;17.70;99.90
50570;DHT22;36525;49.398;7.614;2023-05-07T16:04:00;18.00;99.90
50570;DHT22;36525;49.398;7.614;2023-05-07T16:06:31;18.30;99.90
50570;DHT22;36525;49.398;7.614;2023-05-07T16:08:58;18.70;99.90